Terminal Aerodrome Forecast
Issued by NWS

Home | Current Version | Previous Version | Text Only | Print | Product List | Glossary On
Versions: 1 2 3 4 5 6 7 8 9 10 11 12 13 14 15 16 17 18 19 20 21 22 23 24 25 26 27 28 29 30 31 32 33 34
000
FTUS41 KBOX 270210 AAA
TAFBAF
TAF AMD
KBAF 270210Z 2702/2724 01014G22KT 1SM -SN OVC015
     FM270400 02015G24KT 1/2SM SN OVC012
     FM270600 02017G26KT 3SM -SN BLSN OVC010
     FM270900 01016G33KT 1/2SM SN BLSN OVC006
     FM271200 36016G33KT 1/4SM +SN BLSN OVC006
     FM271700 36017G25KT 1/4SM +SN BLSN OVC006=

USA.gov is the U.S. government's official web portal to all federal, state and local government web resources and services.